createdAt,value
2022-09-30T00:01:49.394Z,14.44
2022-09-30T00:04:20.704Z,14.21
2022-09-30T00:06:49.507Z,14.47
2022-09-30T00:09:18.033Z,14.47
2022-09-30T00:11:47.549Z,14.47
2022-09-30T00:14:19.066Z,14.52
2022-09-30T00:16:49.236Z,14.51
2022-09-30T00:19:17.847Z,14.46
2022-09-30T00:21:46.293Z,14.44
2022-09-30T00:24:14.814Z,14.44
2022-09-30T00:26:43.190Z,14.43
2022-09-30T00:29:12.370Z,14.41
2022-09-30T00:31:40.975Z,14.20
2022-09-30T00:34:11.666Z,14.35
2022-09-30T00:36:44.523Z,14.35
2022-09-30T00:39:16.351Z,14.31
2022-09-30T00:41:45.652Z,14.14
2022-09-30T00:44:45.619Z,14.33
2022-09-30T00:47:46.259Z,14.33
2022-09-30T00:50:27.990Z,14.32
2022-09-30T00:53:01.877Z,14.37
2022-09-30T00:55:37.897Z,14.39
2022-09-30T00:58:09.093Z,14.37
2022-09-30T01:00:41.739Z,14.34
2022-09-30T01:03:13.844Z,14.31
2022-09-30T01:05:44.115Z,14.29
2022-09-30T01:08:12.753Z,14.17
2022-09-30T01:10:41.044Z,14.31
2022-09-30T01:13:09.299Z,14.33
2022-09-30T01:15:49.743Z,14.35
2022-09-30T01:18:26.244Z,14.36
2022-09-30T01:21:42.587Z,14.29
2022-09-30T01:24:40.299Z,14.30
2022-09-30T01:27:41.430Z,14.26
2022-09-30T01:30:14.551Z,14.26
2022-09-30T01:33:05.743Z,14.28
2022-09-30T01:35:44.225Z,14.30
2022-09-30T01:38:18.466Z,14.33
2022-09-30T01:40:52.094Z,14.32
2022-09-30T01:43:32.223Z,14.29
2022-09-30T01:46:06.944Z,13.98
2022-09-30T01:48:47.982Z,14.14
2022-09-30T01:51:23.005Z,14.14
2022-09-30T01:53:56.862Z,13.89
2022-09-30T01:56:35.838Z,14.16
2022-09-30T01:59:10.061Z,14.15
2022-09-30T02:01:43.883Z,14.12
2022-09-30T02:04:19.836Z,14.10
2022-09-30T02:06:53.034Z,14.05
2022-09-30T02:09:28.029Z,14.02
2022-09-30T02:12:00.362Z,13.99
2022-09-30T02:14:34.347Z,13.97
2022-09-30T02:17:10.989Z,13.67
2022-09-30T02:19:44.790Z,13.74
2022-09-30T02:22:17.761Z,13.98
2022-09-30T02:24:48.684Z,13.79
2022-09-30T02:27:22.405Z,13.99
2022-09-30T02:29:57.208Z,13.96
2022-09-30T02:32:29.014Z,13.94
2022-09-30T02:35:03.059Z,13.94
2022-09-30T02:37:35.769Z,13.89
2022-09-30T02:40:10.811Z,13.88
2022-09-30T02:42:42.091Z,13.84
2022-09-30T02:45:13.314Z,13.82
2022-09-30T02:47:58.330Z,13.79
2022-09-30T02:50:33.244Z,13.70
2022-09-30T02:53:15.592Z,13.65
2022-09-30T02:56:02.423Z,13.60
2022-09-30T02:58:33.866Z,13.59
2022-09-30T03:01:02.331Z,13.56
2022-09-30T03:03:34.295Z,13.53
2022-09-30T03:06:04.121Z,13.56
2022-09-30T03:08:32.272Z,13.59
2022-09-30T03:11:00.827Z,13.50
2022-09-30T03:14:10.987Z,13.64
2022-09-30T03:16:55.131Z,13.61
2022-09-30T03:19:42.392Z,13.60
2022-09-30T03:22:44.907Z,13.48
2022-09-30T03:25:25.283Z,13.54
2022-09-30T03:28:06.303Z,13.54
2022-09-30T03:30:38.761Z,13.55
2022-09-30T03:33:11.684Z,13.46
2022-09-30T03:35:50.324Z,13.54
2022-09-30T03:38:34.107Z,13.56
2022-09-30T03:41:08.949Z,13.54
2022-09-30T03:43:44.293Z,13.51
2022-09-30T03:46:21.484Z,13.51
2022-09-30T03:48:52.389Z,13.46
2022-09-30T03:51:22.051Z,13.38
2022-09-30T03:53:53.416Z,13.47
2022-09-30T03:56:26.701Z,13.37
2022-09-30T03:58:55.127Z,13.42
2022-09-30T04:01:28.677Z,13.19
2022-09-30T04:04:00.570Z,13.37
2022-09-30T04:06:28.743Z,13.41
2022-09-30T04:08:58.433Z,13.39
2022-09-30T04:11:26.787Z,13.36
2022-09-30T04:13:55.055Z,13.34
2022-09-30T04:16:23.335Z,13.35
2022-09-30T04:18:52.320Z,13.43
2022-09-30T04:21:20.605Z,13.43
2022-09-30T04:23:48.832Z,13.41
2022-09-30T04:26:20.627Z,13.43
2022-09-30T04:28:49.103Z,13.46
2022-09-30T04:31:21.366Z,13.48
2022-09-30T04:33:50.778Z,13.46
2022-09-30T04:36:19.239Z,13.43
2022-09-30T04:38:47.524Z,13.39
2022-09-30T04:41:17.459Z,13.45
2022-09-30T04:43:48.604Z,13.19
2022-09-30T04:46:17.714Z,13.38
2022-09-30T04:48:46.580Z,13.32
2022-09-30T04:51:16.125Z,13.06
2022-09-30T04:53:44.814Z,13.25
2022-09-30T04:56:13.645Z,13.26
2022-09-30T04:58:41.982Z,13.22
2022-09-30T05:01:13.315Z,13.16
2022-09-30T05:03:43.454Z,12.96
2022-09-30T05:06:12.636Z,13.16
2022-09-30T05:08:45.743Z,13.13
2022-09-30T05:11:18.753Z,12.67
2022-09-30T05:13:48.346Z,13.08
2022-09-30T05:16:18.530Z,12.98
2022-09-30T05:18:47.289Z,13.07
2022-09-30T05:21:16.949Z,13.05
2022-09-30T05:23:45.348Z,13.02
2022-09-30T05:26:14.267Z,12.95
2022-09-30T05:28:42.969Z,13.00
2022-09-30T05:31:13.702Z,13.01
2022-09-30T05:33:43.433Z,12.95
2022-09-30T05:36:15.405Z,12.95
2022-09-30T05:38:44.049Z,12.45
2022-09-30T05:41:15.613Z,12.84
2022-09-30T05:43:47.822Z,12.59
2022-09-30T05:46:16.477Z,12.82
2022-09-30T05:48:46.907Z,12.82
2022-09-30T05:51:15.510Z,12.72
2022-09-30T05:53:44.427Z,12.79
2022-09-30T05:56:13.321Z,12.93
2022-09-30T05:58:42.261Z,12.85
2022-09-30T06:01:14.036Z,12.69
2022-09-30T06:03:43.478Z,12.91
2022-09-30T06:06:13.703Z,12.80
2022-09-30T06:08:43.706Z,12.75
2022-09-30T06:11:13.744Z,12.73
2022-09-30T06:13:44.510Z,12.81
2022-09-30T06:16:14.015Z,12.82
2022-09-30T06:18:42.549Z,12.83
2022-09-30T06:21:14.471Z,12.67
2022-09-30T06:23:43.209Z,12.52
2022-09-30T06:26:13.524Z,12.79
2022-09-30T06:28:41.976Z,13.01
2022-09-30T06:31:11.458Z,12.99
2022-09-30T06:33:39.992Z,13.06
2022-09-30T06:36:08.217Z,13.10
2022-09-30T06:38:40.079Z,13.11
2022-09-30T06:41:10.947Z,13.12
2022-09-30T06:43:55.476Z,13.28
2022-09-30T06:46:30.666Z,13.21
2022-09-30T06:49:22.673Z,13.26
2022-09-30T06:51:49.561Z,13.43
2022-09-30T06:54:19.522Z,13.47
2022-09-30T06:56:48.723Z,13.36
2022-09-30T06:59:17.946Z,13.46
2022-09-30T07:01:46.628Z,13.51
2022-09-30T07:04:15.056Z,13.42
2022-09-30T07:06:43.967Z,13.54
2022-09-30T07:09:13.014Z,13.64
2022-09-30T07:11:43.918Z,13.67
2022-09-30T07:14:13.546Z,13.65
2022-09-30T07:16:41.994Z,13.68
2022-09-30T07:19:12.839Z,13.68
2022-09-30T07:21:41.122Z,13.59
2022-09-30T07:24:09.729Z,13.80
2022-09-30T07:26:38.236Z,13.83
2022-09-30T07:29:08.225Z,13.90
2022-09-30T07:31:36.706Z,13.92
2022-09-30T07:34:07.640Z,13.95
2022-09-30T07:36:37.969Z,13.99
2022-09-30T07:39:11.179Z,13.72
2022-09-30T07:41:41.366Z,13.74
2022-09-30T07:44:15.229Z,13.81
2022-09-30T07:46:45.002Z,14.11
2022-09-30T07:49:16.073Z,14.03
2022-09-30T07:51:46.320Z,14.14
2022-09-30T07:54:16.263Z,14.18
2022-09-30T07:59:37.785Z,13.97
2022-09-30T08:02:07.486Z,14.39
2022-09-30T08:04:38.214Z,14.48
2022-09-30T08:07:11.042Z,14.57
2022-09-30T08:09:41.080Z,14.67
2022-09-30T08:12:10.096Z,14.72
2022-09-30T08:14:39.738Z,14.87
2022-09-30T08:17:08.070Z,15.00
2022-09-30T08:19:36.300Z,15.09
2022-09-30T08:22:06.631Z,15.21
2022-09-30T08:24:35.142Z,15.33
2022-09-30T08:27:03.525Z,15.44
2022-09-30T08:32:21.496Z,15.73
2022-09-30T08:34:49.902Z,15.90
2022-09-30T08:37:18.507Z,16.05
2022-09-30T08:39:48.534Z,16.15
2022-09-30T08:42:37.988Z,16.34
2022-09-30T08:45:18.438Z,16.55
2022-09-30T08:47:58.484Z,16.67
2022-09-30T08:50:34.774Z,16.96
2022-09-30T08:53:06.978Z,17.09
2022-09-30T08:55:41.401Z,17.26
2022-09-30T08:58:19.485Z,17.37
2022-09-30T09:00:49.429Z,17.50
2022-09-30T09:03:20.597Z,17.59
2022-09-30T09:05:55.980Z,17.41
2022-09-30T09:08:31.609Z,17.73
2022-09-30T09:11:05.989Z,17.74
2022-09-30T09:13:51.928Z,17.71
2022-09-30T09:16:28.471Z,17.63
2022-09-30T09:19:07.553Z,17.66
2022-09-30T09:21:46.233Z,17.70
2022-09-30T09:24:18.254Z,17.72
2022-09-30T09:26:47.810Z,17.76
2022-09-30T09:29:33.853Z,17.83
2022-09-30T09:32:03.760Z,17.86
2022-09-30T09:34:36.990Z,17.90
2022-09-30T09:37:16.836Z,17.91
2022-09-30T09:40:04.743Z,17.97
2022-09-30T09:42:42.786Z,17.94
2022-09-30T09:45:19.673Z,17.94
2022-09-30T09:47:52.314Z,17.97
2022-09-30T09:50:28.334Z,18.00
2022-09-30T09:53:19.340Z,18.02
2022-09-30T09:55:47.575Z,17.99
2022-09-30T09:58:17.516Z,18.01
2022-09-30T10:01:07.538Z,18.01
2022-09-30T10:03:38.278Z,17.99
2022-09-30T10:06:09.407Z,17.99
2022-09-30T10:08:39.894Z,18.01
2022-09-30T10:11:19.230Z,18.04
2022-09-30T10:13:48.233Z,18.05
2022-09-30T10:16:30.907Z,18.07
2022-09-30T10:19:00.236Z,18.11
2022-09-30T10:21:31.237Z,18.24
2022-09-30T10:23:59.982Z,18.38
2022-09-30T10:26:29.640Z,18.54
2022-09-30T10:28:59.725Z,18.67
2022-09-30T10:31:31.315Z,18.82
2022-09-30T10:34:04.477Z,18.66
2022-09-30T10:36:36.665Z,18.88
2022-09-30T10:39:08.589Z,18.81
2022-09-30T10:41:39.082Z,18.81
2022-09-30T10:44:15.120Z,18.92
2022-09-30T10:46:45.697Z,19.08
2022-09-30T10:49:27.457Z,19.13
2022-09-30T10:51:57.967Z,19.01
2022-09-30T10:54:45.444Z,18.89
2022-09-30T10:57:17.260Z,19.01
2022-09-30T10:59:48.105Z,19.11
2022-09-30T11:02:27.439Z,19.05
2022-09-30T11:05:04.242Z,19.03
2022-09-30T11:07:41.328Z,19.08
2022-09-30T11:10:26.846Z,19.01
2022-09-30T11:13:01.485Z,18.88
2022-09-30T11:15:34.029Z,18.71
2022-09-30T11:18:08.282Z,18.56
2022-09-30T11:20:43.154Z,18.48
2022-09-30T11:23:20.251Z,18.44
2022-09-30T11:25:55.409Z,18.32
2022-09-30T11:28:46.909Z,18.57
2022-09-30T11:31:28.256Z,18.54
2022-09-30T11:34:10.599Z,18.44
2022-09-30T11:36:46.993Z,18.31
2022-09-30T11:39:50.170Z,18.21
2022-09-30T11:42:31.920Z,17.49
2022-09-30T11:45:09.105Z,18.01
2022-09-30T11:47:57.819Z,17.92
2022-09-30T11:50:51.116Z,17.87
2022-09-30T11:53:28.145Z,17.92
2022-09-30T11:56:10.195Z,18.16
2022-09-30T11:58:44.219Z,18.35
2022-09-30T12:01:27.065Z,18.53
2022-09-30T12:04:02.573Z,18.58
2022-09-30T12:06:36.112Z,18.79
2022-09-30T12:09:16.584Z,19.04
2022-09-30T12:11:52.210Z,19.09
2022-09-30T12:14:27.196Z,19.52
2022-09-30T12:16:57.842Z,19.57
2022-09-30T12:19:31.475Z,19.58
2022-09-30T12:22:06.804Z,19.54
2022-09-30T12:24:38.390Z,19.47
2022-09-30T12:27:14.128Z,19.32
2022-09-30T12:30:08.029Z,19.19
2022-09-30T12:33:16.526Z,18.95
2022-09-30T12:36:16.161Z,18.80
2022-09-30T12:39:26.573Z,18.66
2022-09-30T12:42:24.907Z,18.57
2022-09-30T12:45:25.510Z,18.37
2022-09-30T12:47:56.794Z,18.08
2022-09-30T12:50:35.305Z,18.12
2022-09-30T12:53:13.459Z,17.96
2022-09-30T12:55:43.507Z,17.83
2022-09-30T12:58:26.214Z,17.75
2022-09-30T13:01:06.881Z,17.67
2022-09-30T13:03:50.993Z,17.64
2022-09-30T13:06:21.286Z,17.64
2022-09-30T13:09:09.700Z,17.68
2022-09-30T13:11:43.296Z,17.70
2022-09-30T13:14:33.902Z,17.71
2022-09-30T13:17:22.758Z,17.71
2022-09-30T13:19:52.724Z,17.70
2022-09-30T13:23:00.029Z,17.70
2022-09-30T13:25:28.678Z,17.67
2022-09-30T13:28:32.243Z,17.67
2022-09-30T13:31:15.859Z,17.63
2022-09-30T13:33:49.168Z,17.55
2022-09-30T13:36:28.571Z,17.51
2022-09-30T13:39:24.313Z,17.44
2022-09-30T13:42:10.217Z,17.42
2022-09-30T13:44:57.612Z,17.40
2022-09-30T13:47:31.216Z,17.36
2022-09-30T13:50:07.556Z,17.35
2022-09-30T13:52:39.870Z,17.31
2022-09-30T13:55:15.452Z,17.28
2022-09-30T13:57:52.449Z,17.29
2022-09-30T14:00:22.485Z,17.26
2022-09-30T14:03:25.298Z,17.33
2022-09-30T14:06:16.319Z,17.32
2022-09-30T14:09:19.913Z,17.36
2022-09-30T14:12:23.260Z,17.31
2022-09-30T14:15:08.957Z,17.33
2022-09-30T14:18:00.418Z,17.34
2022-09-30T14:20:40.313Z,17.39
2022-09-30T14:23:16.484Z,17.44
2022-09-30T14:25:54.070Z,17.49
2022-09-30T14:28:32.087Z,17.51
2022-09-30T14:31:09.490Z,17.49
2022-09-30T14:33:39.645Z,17.49
2022-09-30T14:36:15.218Z,17.52
2022-09-30T14:38:48.412Z,17.52
2022-09-30T14:41:20.827Z,17.52
2022-09-30T14:43:53.202Z,17.58
2022-09-30T14:46:30.414Z,17.64
2022-09-30T14:49:04.622Z,17.70
2022-09-30T14:51:43.756Z,17.74
2022-09-30T14:54:22.033Z,17.80
2022-09-30T14:56:51.066Z,17.83
2022-09-30T14:59:20.907Z,17.88
2022-09-30T15:01:55.513Z,17.92
2022-09-30T15:04:27.572Z,17.97
2022-09-30T15:06:56.828Z,18.05
2022-09-30T15:09:30.985Z,18.06
2022-09-30T15:12:05.194Z,18.03
2022-09-30T15:14:34.102Z,18.01
2022-09-30T15:17:06.086Z,18.03
2022-09-30T15:19:43.326Z,18.06
2022-09-30T15:22:14.502Z,18.07
2022-09-30T15:24:45.229Z,18.13
2022-09-30T15:27:20.807Z,18.15
2022-09-30T15:29:55.779Z,18.11
2022-09-30T15:32:27.777Z,18.04
2022-09-30T15:34:58.751Z,17.97
2022-09-30T15:37:33.430Z,17.93
2022-09-30T15:40:21.407Z,17.91
2022-09-30T15:43:00.316Z,17.81
2022-09-30T15:45:40.237Z,17.70
2022-09-30T15:48:33.494Z,17.83
2022-09-30T15:51:02.441Z,17.78
2022-09-30T15:53:32.690Z,17.77
2022-09-30T15:56:17.768Z,17.76
2022-09-30T15:58:56.619Z,17.81
2022-09-30T16:01:31.459Z,17.89
2022-09-30T16:04:02.921Z,18.01
2022-09-30T16:06:35.519Z,18.07
2022-09-30T16:09:08.625Z,18.12
2022-09-30T16:11:42.036Z,18.11
2022-09-30T16:14:18.823Z,18.10
2022-09-30T16:16:53.823Z,18.11
2022-09-30T16:19:24.505Z,18.11
2022-09-30T16:21:54.857Z,18.09
2022-09-30T16:24:48.632Z,18.09
2022-09-30T16:27:31.361Z,18.06
2022-09-30T16:30:01.336Z,18.06
2022-09-30T16:32:34.038Z,17.52
2022-09-30T16:35:02.279Z,17.99
2022-09-30T16:37:30.492Z,17.95
2022-09-30T16:40:10.409Z,17.90
2022-09-30T16:42:39.989Z,17.84
2022-09-30T16:45:08.994Z,17.74
2022-09-30T16:47:37.221Z,17.64
2022-09-30T16:50:16.888Z,17.55
2022-09-30T16:52:45.155Z,17.45
2022-09-30T16:55:13.400Z,17.45
2022-09-30T16:57:44.207Z,17.42
2022-09-30T17:00:18.098Z,17.42
2022-09-30T17:02:48.226Z,17.36
2022-09-30T17:05:19.856Z,17.28
2022-09-30T17:07:53.501Z,17.23
2022-09-30T17:10:24.513Z,17.10
2022-09-30T17:12:54.314Z,17.20
2022-09-30T17:15:23.152Z,17.15
2022-09-30T17:17:51.723Z,17.09
2022-09-30T17:20:19.951Z,17.06
2022-09-30T17:22:48.632Z,16.95
2022-09-30T17:25:17.231Z,16.90
2022-09-30T17:27:49.026Z,16.93
2022-09-30T17:30:19.412Z,16.85
2022-09-30T17:32:47.834Z,16.79
2022-09-30T17:35:16.817Z,16.74
2022-09-30T17:37:46.607Z,16.72
2022-09-30T17:40:32.615Z,16.70
2022-09-30T17:43:11.177Z,16.67
2022-09-30T17:45:44.107Z,16.66
2022-09-30T17:48:13.447Z,16.65
2022-09-30T17:50:44.339Z,16.58
2022-09-30T17:53:14.282Z,16.55
2022-09-30T17:55:43.635Z,16.53
2022-09-30T17:58:12.541Z,16.53
2022-09-30T18:00:42.527Z,16.51
2022-09-30T18:03:12.175Z,16.48
2022-09-30T18:05:40.488Z,16.48
2022-09-30T18:08:08.846Z,16.47
2022-09-30T18:10:38.640Z,16.46
2022-09-30T18:13:07.204Z,16.48
2022-09-30T18:15:38.950Z,16.48
2022-09-30T18:18:09.051Z,16.45
2022-09-30T18:20:37.421Z,16.36
2022-09-30T18:23:05.946Z,16.33
2022-09-30T18:25:35.055Z,16.26
2022-09-30T18:28:03.898Z,16.27
2022-09-30T18:30:32.290Z,16.20
2022-09-30T18:33:00.737Z,16.08
2022-09-30T18:35:30.321Z,16.09
2022-09-30T18:37:59.923Z,16.06
2022-09-30T18:40:31.750Z,16.02
2022-09-30T18:43:02.796Z,16.00
2022-09-30T18:45:32.724Z,16.00
2022-09-30T18:48:02.136Z,15.99
2022-09-30T18:50:32.795Z,15.96
2022-09-30T18:53:06.799Z,15.90
2022-09-30T18:55:38.594Z,15.86
2022-09-30T18:58:06.925Z,15.83
2022-09-30T19:00:35.252Z,15.75
2022-09-30T19:03:03.505Z,15.70
2022-09-30T19:05:33.061Z,15.71
2022-09-30T19:08:01.330Z,15.69
2022-09-30T19:10:29.784Z,15.64
2022-09-30T19:13:00.032Z,15.62
2022-09-30T19:15:28.270Z,15.58
2022-09-30T19:17:57.594Z,15.54
2022-09-30T19:20:26.068Z,15.52
2022-09-30T19:22:55.732Z,15.51
2022-09-30T19:25:23.916Z,15.52
2022-09-30T19:27:53.122Z,15.52
2022-09-30T19:30:24.133Z,15.48
2022-09-30T19:32:59.407Z,15.44
2022-09-30T19:35:38.386Z,15.36
2022-09-30T19:38:10.909Z,15.34
2022-09-30T19:40:39.091Z,15.28
2022-09-30T19:43:08.309Z,15.24
2022-09-30T19:45:36.633Z,15.16
2022-09-30T19:48:05.088Z,15.19
2022-09-30T19:50:35.887Z,15.17
2022-09-30T19:53:04.224Z,15.16
2022-09-30T19:55:46.144Z,15.11
2022-09-30T19:58:17.596Z,15.03
2022-09-30T20:00:53.812Z,14.98
2022-09-30T20:03:22.476Z,14.94
2022-09-30T20:05:51.315Z,14.90
2022-09-30T20:08:19.624Z,14.86
2022-09-30T20:10:49.168Z,14.79
2022-09-30T20:13:17.392Z,14.67
2022-09-30T20:15:53.468Z,14.63
2022-09-30T20:18:22.143Z,14.59
2022-09-30T20:20:50.580Z,14.52
2022-09-30T20:23:19.396Z,14.43
2022-09-30T20:25:51.485Z,14.34
2022-09-30T20:28:20.730Z,14.27
2022-09-30T20:30:49.606Z,14.22
2022-09-30T20:33:19.276Z,14.20
2022-09-30T20:35:48.163Z,14.16
2022-09-30T20:38:24.927Z,13.95
2022-09-30T20:40:59.502Z,14.04
2022-09-30T20:43:30.300Z,13.97
2022-09-30T20:46:01.524Z,13.88
2022-09-30T20:48:33.718Z,13.87
2022-09-30T20:51:02.104Z,13.71
2022-09-30T20:53:30.243Z,13.62
2022-09-30T20:56:01.509Z,13.53
2022-09-30T20:58:29.774Z,13.40
2022-09-30T21:01:03.338Z,13.37
2022-09-30T21:03:36.075Z,13.32
2022-09-30T21:06:05.192Z,13.35
2022-09-30T21:08:33.376Z,13.35
2022-09-30T21:11:04.695Z,13.34
2022-09-30T21:13:33.554Z,13.24
2022-09-30T21:16:04.112Z,13.24
2022-09-30T21:18:32.731Z,13.17
2022-09-30T21:21:03.392Z,13.13
2022-09-30T21:23:34.792Z,13.09
2022-09-30T21:26:06.508Z,13.05
2022-09-30T21:28:36.140Z,13.06
2022-09-30T21:31:06.474Z,13.10
2022-09-30T21:33:35.707Z,13.12
2022-09-30T21:36:06.111Z,13.09
2022-09-30T21:38:35.080Z,12.92
2022-09-30T21:41:07.284Z,12.86
2022-09-30T21:43:37.475Z,12.73
2022-09-30T21:46:07.590Z,12.88
2022-09-30T21:48:36.808Z,12.79
2022-09-30T21:51:06.748Z,12.66
2022-09-30T21:53:35.415Z,12.30
2022-09-30T21:56:05.770Z,12.52
2022-09-30T21:58:34.387Z,12.52
2022-09-30T22:01:06.806Z,12.51
2022-09-30T22:03:38.762Z,12.52
2022-09-30T22:06:09.292Z,12.50
2022-09-30T22:08:40.326Z,12.48
2022-09-30T22:11:11.510Z,12.35
2022-09-30T22:13:40.857Z,12.21
2022-09-30T22:16:09.947Z,12.09
2022-09-30T22:18:38.619Z,12.03
2022-09-30T22:21:15.704Z,11.78
2022-09-30T22:23:48.232Z,11.88
2022-09-30T22:26:19.723Z,11.73
2022-09-30T22:28:49.268Z,11.71
2022-09-30T22:31:19.584Z,11.74
2022-09-30T22:34:05.787Z,11.77
2022-09-30T22:36:51.609Z,11.67
2022-09-30T22:39:20.948Z,11.56
2022-09-30T22:41:53.088Z,11.49
2022-09-30T22:44:21.715Z,11.42
2022-09-30T22:46:50.744Z,11.38
2022-09-30T22:49:19.391Z,11.33
2022-09-30T22:51:47.786Z,11.28
2022-09-30T22:54:16.056Z,11.22
2022-09-30T22:56:44.854Z,11.20
2022-09-30T22:59:14.495Z,11.15
2022-09-30T23:01:44.396Z,11.09
2022-09-30T23:04:14.859Z,11.08
2022-09-30T23:06:43.646Z,11.02
2022-09-30T23:09:11.982Z,11.01
2022-09-30T23:11:42.458Z,10.94
2022-09-30T23:14:12.026Z,10.87
2022-09-30T23:16:42.890Z,10.84
2022-09-30T23:19:11.526Z,10.78
2022-09-30T23:21:39.655Z,10.73
2022-09-30T23:24:08.518Z,10.62
2022-09-30T23:26:37.287Z,10.55
2022-09-30T23:29:07.375Z,10.49
2022-09-30T23:31:36.061Z,10.48
2022-09-30T23:34:06.564Z,10.35
2022-09-30T23:36:36.734Z,10.36
2022-09-30T23:39:09.227Z,10.47
2022-09-30T23:41:37.848Z,10.49
2022-09-30T23:44:06.803Z,10.52
2022-09-30T23:46:35.089Z,10.48
2022-09-30T23:49:03.210Z,10.45
2022-09-30T23:51:34.404Z,10.46
2022-09-30T23:54:03.152Z,10.47
2022-09-30T23:56:32.209Z,10.43
2022-09-30T23:59:00.562Z,10.41
